sensor_id;sensor_type;location;lat;lon;timestamp;temperature;humidity
3876;DHT22;1953;51.222;6.624;2023-05-17T00:00:31;11.30;1.00
3876;DHT22;1953;51.222;6.624;2023-05-17T00:05:13;11.20;1.00
3876;DHT22;1953;51.222;6.624;2023-05-17T00:11:51;11.10;1.00
3876;DHT22;1953;51.222;6.624;2023-05-17T00:16:34;11.00;1.00
3876;DHT22;1953;51.222;6.624;2023-05-17T00:21:16;11.00;1.00
3876;DHT22;1953;51.222;6.624;2023-05-17T00:25:59;11.00;1.00
3876;DHT22;1953;51.222;6.624;2023-05-17T00:30:43;9.60;1.00
3876;DHT22;1953;51.222;6.624;2023-05-17T00:35:25;10.90;1.00
3876;DHT22;1953;51.222;6.624;2023-05-17T00:40:09;10.90;1.00
3876;DHT22;1953;51.222;6.624;2023-05-17T00:44:52;10.80;1.00
3876;DHT22;1953;51.222;6.624;2023-05-17T00:49:36;10.70;1.00
3876;DHT22;1953;51.222;6.624;2023-05-17T00:54:18;10.70;1.00
3876;DHT22;1953;51.222;6.624;2023-05-17T00:59:01;10.60;1.00
3876;DHT22;1953;51.222;6.624;2023-05-17T01:03:45;10.60;1.00
3876;DHT22;1953;51.222;6.624;2023-05-17T01:08:29;10.60;1.00
3876;DHT22;1953;51.222;6.624;2023-05-17T01:13:17;10.50;1.00
3876;DHT22;1953;51.222;6.624;2023-05-17T01:18:07;10.50;1.00
3876;DHT22;1953;51.222;6.624;2023-05-17T01:22:56;10.40;1.00
3876;DHT22;1953;51.222;6.624;2023-05-17T01:27:44;10.30;1.00
3876;DHT22;1953;51.222;6.624;2023-05-17T01:32:29;10.30;1.00
3876;DHT22;1953;51.222;6.624;2023-05-17T01:37:13;10.30;1.00
3876;DHT22;1953;51.222;6.624;2023-05-17T01:42:01;10.20;1.00
3876;DHT22;1953;51.222;6.624;2023-05-17T01:46:46;10.20;1.00
3876;DHT22;1953;51.222;6.624;2023-05-17T01:51:38;10.10;1.00
3876;DHT22;1953;51.222;6.624;2023-05-17T01:56:27;10.00;1.00
3876;DHT22;1953;51.222;6.624;2023-05-17T02:01:15;10.00;1.00
3876;DHT22;1953;51.222;6.624;2023-05-17T02:05:59;10.00;1.00
3876;DHT22;1953;51.222;6.624;2023-05-17T02:10:42;10.00;1.00
3876;DHT22;1953;51.222;6.624;2023-05-17T02:15:24;10.00;1.00
3876;DHT22;1953;51.222;6.624;2023-05-17T02:20:08;10.00;1.00
3876;DHT22;1953;51.222;6.624;2023-05-17T02:24:53;10.00;1.00
3876;DHT22;1953;51.222;6.624;2023-05-17T02:29:35;10.00;1.00
3876;DHT22;1953;51.222;6.624;2023-05-17T02:34:18;9.80;1.00
3876;DHT22;1953;51.222;6.624;2023-05-17T02:39:00;9.80;1.00
3876;DHT22;1953;51.222;6.624;2023-05-17T02:43:44;9.80;1.00
3876;DHT22;1953;51.222;6.624;2023-05-17T02:48:27;9.70;1.00
3876;DHT22;1953;51.222;6.624;2023-05-17T02:53:09;9.80;1.00
3876;DHT22;1953;51.222;6.624;2023-05-17T02:57:52;9.80;1.00
3876;DHT22;1953;51.222;6.624;2023-05-17T03:02:36;9.70;1.00
3876;DHT22;1953;51.222;6.624;2023-05-17T03:07:18;9.70;1.00
3876;DHT22;1953;51.222;6.624;2023-05-17T03:12:01;9.60;1.00
3876;DHT22;1953;51.222;6.624;2023-05-17T03:16:43;9.60;1.00
3876;DHT22;1953;51.222;6.624;2023-05-17T03:21:27;9.60;1.00
3876;DHT22;1953;51.222;6.624;2023-05-17T03:26:10;9.50;1.00
3876;DHT22;1953;51.222;6.624;2023-05-17T03:30:52;9.50;1.00
3876;DHT22;1953;51.222;6.624;2023-05-17T03:35:35;9.40;1.00
3876;DHT22;1953;51.222;6.624;2023-05-17T03:40:19;9.40;1.00
3876;DHT22;1953;51.222;6.624;2023-05-17T03:45:02;9.30;1.00
3876;DHT22;1953;51.222;6.624;2023-05-17T03:49:45;9.30;1.00
3876;DHT22;1953;51.222;6.624;2023-05-17T03:54:27;9.30;1.00
3876;DHT22;1953;51.222;6.624;2023-05-17T03:59:11;9.30;1.00
3876;DHT22;1953;51.222;6.624;2023-05-17T04:03:54;9.40;1.00
3876;DHT22;1953;51.222;6.624;2023-05-17T04:08:36;9.50;1.00
3876;DHT22;1953;51.222;6.624;2023-05-17T04:13:19;9.60;1.00
3876;DHT22;1953;51.222;6.624;2023-05-17T04:18:03;9.60;1.00
3876;DHT22;1953;51.222;6.624;2023-05-17T04:22:45;9.70;1.00
3876;DHT22;1953;51.222;6.624;2023-05-17T04:27:28;9.70;1.00
3876;DHT22;1953;51.222;6.624;2023-05-17T04:32:10;9.70;1.00
3876;DHT22;1953;51.222;6.624;2023-05-17T04:36:54;9.80;1.00
3876;DHT22;1953;51.222;6.624;2023-05-17T04:41:37;9.90;1.00
3876;DHT22;1953;51.222;6.624;2023-05-17T04:46:19;10.00;1.00
3876;DHT22;1953;51.222;6.624;2023-05-17T04:51:02;10.00;1.00
3876;DHT22;1953;51.222;6.624;2023-05-17T04:55:46;10.10;1.00
3876;DHT22;1953;51.222;6.624;2023-05-17T05:00:29;10.10;1.00
3876;DHT22;1953;51.222;6.624;2023-05-17T05:05:12;10.10;1.00
3876;DHT22;1953;51.222;6.624;2023-05-17T05:09:54;10.10;1.00
3876;DHT22;1953;51.222;6.624;2023-05-17T05:14:38;10.30;1.00
3876;DHT22;1953;51.222;6.624;2023-05-17T05:19:21;10.40;1.00
3876;DHT22;1953;51.222;6.624;2023-05-17T05:24:03;10.60;1.00
3876;DHT22;1953;51.222;6.624;2023-05-17T05:28:46;10.70;1.00
3876;DHT22;1953;51.222;6.624;2023-05-17T05:33:30;10.60;1.00
3876;DHT22;1953;51.222;6.624;2023-05-17T05:38:13;10.60;1.00
3876;DHT22;1953;51.222;6.624;2023-05-17T05:42:55;10.60;1.00
3876;DHT22;1953;51.222;6.624;2023-05-17T05:47:38;10.70;1.00
3876;DHT22;1953;51.222;6.624;2023-05-17T05:52:21;10.80;1.00
3876;DHT22;1953;51.222;6.624;2023-05-17T05:57:04;10.90;1.00
3876;DHT22;1953;51.222;6.624;2023-05-17T06:01:47;12.20;1.00
3876;DHT22;1953;51.222;6.624;2023-05-17T06:06:29;11.10;1.00
3876;DHT22;1953;51.222;6.624;2023-05-17T06:11:13;11.60;1.00
3876;DHT22;1953;51.222;6.624;2023-05-17T06:15:56;11.30;1.00
3876;DHT22;1953;51.222;6.624;2023-05-17T06:20:39;11.40;1.00
3876;DHT22;1953;51.222;6.624;2023-05-17T06:25:22;11.50;1.00
3876;DHT22;1953;51.222;6.624;2023-05-17T06:30:07;11.50;1.00
3876;DHT22;1953;51.222;6.624;2023-05-17T06:34:50;11.70;1.00
3876;DHT22;1953;51.222;6.624;2023-05-17T06:39:33;11.70;1.00
3876;DHT22;1953;51.222;6.624;2023-05-17T06:44:15;11.80;1.00
3876;DHT22;1953;51.222;6.624;2023-05-17T06:48:59;11.80;1.00
3876;DHT22;1953;51.222;6.624;2023-05-17T06:53:42;11.80;1.00
3876;DHT22;1953;51.222;6.624;2023-05-17T06:58:24;12.00;1.00
3876;DHT22;1953;51.222;6.624;2023-05-17T07:03:07;12.20;1.00
3876;DHT22;1953;51.222;6.624;2023-05-17T07:07:51;12.20;1.00
3876;DHT22;1953;51.222;6.624;2023-05-17T07:12:34;12.30;1.00
3876;DHT22;1953;51.222;6.624;2023-05-17T07:17:16;12.40;1.00
3876;DHT22;1953;51.222;6.624;2023-05-17T07:21:59;12.50;1.00
3876;DHT22;1953;51.222;6.624;2023-05-17T07:26:44;12.60;1.00
3876;DHT22;1953;51.222;6.624;2023-05-17T07:31:26;12.80;1.00
3876;DHT22;1953;51.222;6.624;2023-05-17T07:36:09;13.00;1.00
3876;DHT22;1953;51.222;6.624;2023-05-17T07:40:51;13.30;1.00
3876;DHT22;1953;51.222;6.624;2023-05-17T07:45:35;13.50;1.00
3876;DHT22;1953;51.222;6.624;2023-05-17T07:50:18;13.80;1.00
3876;DHT22;1953;51.222;6.624;2023-05-17T07:55:00;14.00;1.00
3876;DHT22;1953;51.222;6.624;2023-05-17T07:59:44;14.10;1.00
3876;DHT22;1953;51.222;6.624;2023-05-17T08:04:27;14.20;1.00
3876;DHT22;1953;51.222;6.624;2023-05-17T08:09:10;14.20;1.00
3876;DHT22;1953;51.222;6.624;2023-05-17T08:13:53;14.20;1.00
3876;DHT22;1953;51.222;6.624;2023-05-17T08:18:36;14.20;1.00
3876;DHT22;1953;51.222;6.624;2023-05-17T08:23:20;14.40;1.00
3876;DHT22;1953;51.222;6.624;2023-05-17T08:28:02;14.50;1.00
3876;DHT22;1953;51.222;6.624;2023-05-17T08:32:45;14.50;1.00
3876;DHT22;1953;51.222;6.624;2023-05-17T08:37:27;14.80;1.00
3876;DHT22;1953;51.222;6.624;2023-05-17T08:42:12;15.00;1.00
3876;DHT22;1953;51.222;6.624;2023-05-17T08:46:55;15.10;1.00
3876;DHT22;1953;51.222;6.624;2023-05-17T08:51:40;15.20;1.00
3876;DHT22;1953;51.222;6.624;2023-05-17T08:56:25;15.20;1.00
3876;DHT22;1953;51.222;6.624;2023-05-17T09:01:11;15.30;1.00
3876;DHT22;1953;51.222;6.624;2023-05-17T09:05:54;15.40;1.00
3876;DHT22;1953;51.222;6.624;2023-05-17T09:10:37;15.50;1.00
3876;DHT22;1953;51.222;6.624;2023-05-17T09:15:21;15.30;1.00
3876;DHT22;1953;51.222;6.624;2023-05-17T09:20:08;15.30;1.00
3876;DHT22;1953;51.222;6.624;2023-05-17T09:24:51;15.20;1.00
3876;DHT22;1953;51.222;6.624;2023-05-17T09:29:34;15.30;1.00
3876;DHT22;1953;51.222;6.624;2023-05-17T09:34:18;15.20;1.00
3876;DHT22;1953;51.222;6.624;2023-05-17T09:39:03;15.00;1.00
3876;DHT22;1953;51.222;6.624;2023-05-17T09:43:46;14.80;1.00
3876;DHT22;1953;51.222;6.624;2023-05-17T09:48:29;15.20;1.00
3876;DHT22;1953;51.222;6.624;2023-05-17T09:53:24;15.50;1.00
3876;DHT22;1953;51.222;6.624;2023-05-17T09:58:09;15.40;1.00
3876;DHT22;1953;51.222;6.624;2023-05-17T10:02:51;15.30;1.00
3876;DHT22;1953;51.222;6.624;2023-05-17T10:07:34;15.50;1.00
3876;DHT22;1953;51.222;6.624;2023-05-17T10:12:21;15.60;1.00
3876;DHT22;1953;51.222;6.624;2023-05-17T10:17:07;15.40;1.00
3876;DHT22;1953;51.222;6.624;2023-05-17T10:21:51;15.40;1.00
3876;DHT22;1953;51.222;6.624;2023-05-17T10:26:34;15.40;1.00
3876;DHT22;1953;51.222;6.624;2023-05-17T10:31:19;15.40;1.00
3876;DHT22;1953;51.222;6.624;2023-05-17T10:36:04;15.60;1.00
3876;DHT22;1953;51.222;6.624;2023-05-17T10:40:48;15.50;1.00
3876;DHT22;1953;51.222;6.624;2023-05-17T10:45:31;15.60;1.00
3876;DHT22;1953;51.222;6.624;2023-05-17T10:50:21;15.80;1.00
3876;DHT22;1953;51.222;6.624;2023-05-17T10:55:06;15.90;1.00
3876;DHT22;1953;51.222;6.624;2023-05-17T10:59:57;16.00;1.00
3876;DHT22;1953;51.222;6.624;2023-05-17T11:04:41;16.60;1.00
3876;DHT22;1953;51.222;6.624;2023-05-17T11:09:24;16.30;1.00
3876;DHT22;1953;51.222;6.624;2023-05-17T11:14:09;16.50;1.00
3876;DHT22;1953;51.222;6.624;2023-05-17T11:18:53;16.70;1.00
3876;DHT22;1953;51.222;6.624;2023-05-17T11:23:36;16.90;1.00
3876;DHT22;1953;51.222;6.624;2023-05-17T11:28:20;16.90;1.00
3876;DHT22;1953;51.222;6.624;2023-05-17T11:33:05;16.60;1.00
3876;DHT22;1953;51.222;6.624;2023-05-17T11:37:51;16.50;1.00
3876;DHT22;1953;51.222;6.624;2023-05-17T11:42:34;16.70;1.00
3876;DHT22;1953;51.222;6.624;2023-05-17T11:47:17;16.80;1.00
3876;DHT22;1953;51.222;6.624;2023-05-17T11:52:01;17.00;1.00
3876;DHT22;1953;51.222;6.624;2023-05-17T11:56:44;17.10;1.00
3876;DHT22;1953;51.222;6.624;2023-05-17T12:01:27;17.60;1.00
3876;DHT22;1953;51.222;6.624;2023-05-17T12:06:11;17.60;1.00
3876;DHT22;1953;51.222;6.624;2023-05-17T12:12:52;20.50;1.00
3876;DHT22;1953;51.222;6.624;2023-05-17T12:17:39;18.00;1.00
3876;DHT22;1953;51.222;6.624;2023-05-17T12:22:24;18.50;1.00
3876;DHT22;1953;51.222;6.624;2023-05-17T12:27:07;19.20;1.00
3876;DHT22;1953;51.222;6.624;2023-05-17T12:31:52;19.90;1.00
3876;DHT22;1953;51.222;6.624;2023-05-17T12:36:35;20.40;1.00
3876;DHT22;1953;51.222;6.624;2023-05-17T12:41:19;21.30;1.00
3876;DHT22;1953;51.222;6.624;2023-05-17T12:46:05;21.10;1.00
3876;DHT22;1953;51.222;6.624;2023-05-17T12:50:49;21.50;1.00
3876;DHT22;1953;51.222;6.624;2023-05-17T12:55:36;22.00;1.00
3876;DHT22;1953;51.222;6.624;2023-05-17T13:00:19;22.70;1.00
3876;DHT22;1953;51.222;6.624;2023-05-17T13:05:13;22.60;1.00
3876;DHT22;1953;51.222;6.624;2023-05-17T13:09:57;22.90;1.00
3876;DHT22;1953;51.222;6.624;2023-05-17T13:14:42;23.60;1.00
3876;DHT22;1953;51.222;6.624;2023-05-17T13:19:25;23.50;1.00
3876;DHT22;1953;51.222;6.624;2023-05-17T13:24:08;24.20;1.00
3876;DHT22;1953;51.222;6.624;2023-05-17T13:28:52;24.20;1.00
3876;DHT22;1953;51.222;6.624;2023-05-17T13:33:35;24.20;1.00
3876;DHT22;1953;51.222;6.624;2023-05-17T13:38:17;25.00;1.00
3876;DHT22;1953;51.222;6.624;2023-05-17T13:43:00;24.70;1.00
3876;DHT22;1953;51.222;6.624;2023-05-17T13:47:44;24.40;1.00
3876;DHT22;1953;51.222;6.624;2023-05-17T13:52:27;24.70;1.00
3876;DHT22;1953;51.222;6.624;2023-05-17T13:57:10;25.40;1.00
3876;DHT22;1953;51.222;6.624;2023-05-17T14:01:53;25.80;1.00
3876;DHT22;1953;51.222;6.624;2023-05-17T14:06:37;25.60;1.00
3876;DHT22;1953;51.222;6.624;2023-05-17T14:11:20;25.00;1.00
3876;DHT22;1953;51.222;6.624;2023-05-17T14:16:03;25.80;1.00
3876;DHT22;1953;51.222;6.624;2023-05-17T14:20:45;25.60;1.00
3876;DHT22;1953;51.222;6.624;2023-05-17T14:25:29;25.80;1.00
3876;DHT22;1953;51.222;6.624;2023-05-17T14:30:13;26.00;1.00
3876;DHT22;1953;51.222;6.624;2023-05-17T14:34:56;26.50;1.00
3876;DHT22;1953;51.222;6.624;2023-05-17T14:39:38;25.80;1.00
3876;DHT22;1953;51.222;6.624;2023-05-17T14:44:22;25.80;1.00
3876;DHT22;1953;51.222;6.624;2023-05-17T14:49:07;25.60;1.00
3876;DHT22;1953;51.222;6.624;2023-05-17T14:53:49;25.10;1.00
3876;DHT22;1953;51.222;6.624;2023-05-17T14:58:32;25.40;1.00
3876;DHT22;1953;51.222;6.624;2023-05-17T15:03:16;25.50;1.00
3876;DHT22;1953;51.222;6.624;2023-05-17T15:07:58;25.50;1.00
3876;DHT22;1953;51.222;6.624;2023-05-17T15:12:41;25.70;1.00
3876;DHT22;1953;51.222;6.624;2023-05-17T15:17:23;25.90;1.00
3876;DHT22;1953;51.222;6.624;2023-05-17T15:22:07;25.80;1.00
3876;DHT22;1953;51.222;6.624;2023-05-17T15:26:50;26.30;1.00
3876;DHT22;1953;51.222;6.624;2023-05-17T15:31:33;25.90;1.00
3876;DHT22;1953;51.222;6.624;2023-05-17T15:36:15;25.40;1.00
3876;DHT22;1953;51.222;6.624;2023-05-17T15:41:02;25.80;1.00
3876;DHT22;1953;51.222;6.624;2023-05-17T15:45:45;25.80;1.00
3876;DHT22;1953;51.222;6.624;2023-05-17T15:50:27;25.90;1.00
3876;DHT22;1953;51.222;6.624;2023-05-17T15:55:10;24.90;1.00
3876;DHT22;1953;51.222;6.624;2023-05-17T15:59:54;24.50;1.00
3876;DHT22;1953;51.222;6.624;2023-05-17T16:04:37;24.70;1.00
3876;DHT22;1953;51.222;6.624;2023-05-17T16:09:19;24.60;1.00
3876;DHT22;1953;51.222;6.624;2023-05-17T16:14:02;23.80;1.00
3876;DHT22;1953;51.222;6.624;2023-05-17T16:18:46;23.60;1.00
3876;DHT22;1953;51.222;6.624;2023-05-17T16:23:28;22.60;1.00
3876;DHT22;1953;51.222;6.624;2023-05-17T16:28:11;22.70;1.00
3876;DHT22;1953;51.222;6.624;2023-05-17T16:32:53;22.30;1.00
3876;DHT22;1953;51.222;6.624;2023-05-17T16:37:37;22.80;1.00
3876;DHT22;1953;51.222;6.624;2023-05-17T16:42:20;23.30;1.00
3876;DHT22;1953;51.222;6.624;2023-05-17T16:47:03;22.30;1.00
3876;DHT22;1953;51.222;6.624;2023-05-17T16:51:46;22.20;1.00
3876;DHT22;1953;51.222;6.624;2023-05-17T16:56:32;22.20;1.00
3876;DHT22;1953;51.222;6.624;2023-05-17T17:01:14;22.30;1.00
3876;DHT22;1953;51.222;6.624;2023-05-17T17:05:57;22.00;1.00
3876;DHT22;1953;51.222;6.624;2023-05-17T17:10:39;21.90;1.00
3876;DHT22;1953;51.222;6.624;2023-05-17T17:15:23;21.70;1.00
3876;DHT22;1953;51.222;6.624;2023-05-17T17:20:07;21.50;1.00
3876;DHT22;1953;51.222;6.624;2023-05-17T17:24:50;21.60;1.00
3876;DHT22;1953;51.222;6.624;2023-05-17T17:29:32;21.40;1.00
3876;DHT22;1953;51.222;6.624;2023-05-17T17:34:16;21.60;1.00
3876;DHT22;1953;51.222;6.624;2023-05-17T17:38:59;21.60;1.00
3876;DHT22;1953;51.222;6.624;2023-05-17T17:43:41;21.40;1.00
3876;DHT22;1953;51.222;6.624;2023-05-17T17:48:27;20.90;1.00
3876;DHT22;1953;51.222;6.624;2023-05-17T17:53:11;20.60;1.00
3876;DHT22;1953;51.222;6.624;2023-05-17T17:57:53;20.40;1.00
3876;DHT22;1953;51.222;6.624;2023-05-17T18:02:36;20.40;1.00
3876;DHT22;1953;51.222;6.624;2023-05-17T18:07:18;20.00;1.00
3876;DHT22;1953;51.222;6.624;2023-05-17T18:12:02;19.30;1.00
3876;DHT22;1953;51.222;6.624;2023-05-17T18:16:45;19.00;1.00
3876;DHT22;1953;51.222;6.624;2023-05-17T18:21:27;18.50;1.00
3876;DHT22;1953;51.222;6.624;2023-05-17T18:26:10;18.20;1.00
3876;DHT22;1953;51.222;6.624;2023-05-17T18:30:54;18.10;1.00
3876;DHT22;1953;51.222;6.624;2023-05-17T18:35:39;17.90;1.00
3876;DHT22;1953;51.222;6.624;2023-05-17T18:40:25;17.90;1.00
3876;DHT22;1953;51.222;6.624;2023-05-17T18:45:10;17.60;1.00
3876;DHT22;1953;51.222;6.624;2023-05-17T18:49:54;17.40;1.00
3876;DHT22;1953;51.222;6.624;2023-05-17T18:54:37;17.40;1.00
3876;DHT22;1953;51.222;6.624;2023-05-17T18:59:20;17.00;1.00
3876;DHT22;1953;51.222;6.624;2023-05-17T19:04:04;17.00;1.00
3876;DHT22;1953;51.222;6.624;2023-05-17T19:08:49;16.80;1.00
3876;DHT22;1953;51.222;6.624;2023-05-17T19:13:32;16.50;1.00
3876;DHT22;1953;51.222;6.624;2023-05-17T19:18:14;16.40;1.00
3876;DHT22;1953;51.222;6.624;2023-05-17T19:22:57;16.40;1.00
3876;DHT22;1953;51.222;6.624;2023-05-17T19:27:42;16.10;1.00
3876;DHT22;1953;51.222;6.624;2023-05-17T19:32:24;15.90;1.00
3876;DHT22;1953;51.222;6.624;2023-05-17T19:37:07;15.80;1.00
3876;DHT22;1953;51.222;6.624;2023-05-17T19:41:49;15.60;1.00
3876;DHT22;1953;51.222;6.624;2023-05-17T19:46:33;15.50;1.00
3876;DHT22;1953;51.222;6.624;2023-05-17T19:51:16;15.30;1.00
3876;DHT22;1953;51.222;6.624;2023-05-17T19:55:58;15.20;1.00
3876;DHT22;1953;51.222;6.624;2023-05-17T20:00:44;14.90;1.00
3876;DHT22;1953;51.222;6.624;2023-05-17T20:05:28;14.80;1.00
3876;DHT22;1953;51.222;6.624;2023-05-17T20:10:11;14.70;1.00
3876;DHT22;1953;51.222;6.624;2023-05-17T20:14:54;14.70;1.00
3876;DHT22;1953;51.222;6.624;2023-05-17T20:19:36;14.80;1.00
3876;DHT22;1953;51.222;6.624;2023-05-17T20:24:20;14.90;1.00
3876;DHT22;1953;51.222;6.624;2023-05-17T20:29:05;14.80;1.00
3876;DHT22;1953;51.222;6.624;2023-05-17T20:33:48;14.70;1.00
3876;DHT22;1953;51.222;6.624;2023-05-17T20:38:30;14.50;1.00
3876;DHT22;1953;51.222;6.624;2023-05-17T20:43:14;14.50;1.00
3876;DHT22;1953;51.222;6.624;2023-05-17T20:47:57;14.30;1.00
3876;DHT22;1953;51.222;6.624;2023-05-17T20:52:39;14.10;1.00
3876;DHT22;1953;51.222;6.624;2023-05-17T20:57:22;14.00;1.00
3876;DHT22;1953;51.222;6.624;2023-05-17T21:02:06;13.90;1.00
3876;DHT22;1953;51.222;6.624;2023-05-17T21:06:48;13.80;1.00
3876;DHT22;1953;51.222;6.624;2023-05-17T21:11:32;13.80;1.00
3876;DHT22;1953;51.222;6.624;2023-05-17T21:16:14;13.70;1.00
3876;DHT22;1953;51.222;6.624;2023-05-17T21:20:59;13.90;1.00
3876;DHT22;1953;51.222;6.624;2023-05-17T21:25:41;13.60;1.00
3876;DHT22;1953;51.222;6.624;2023-05-17T21:30:24;13.50;1.00
3876;DHT22;1953;51.222;6.624;2023-05-17T21:35:07;13.40;1.00
3876;DHT22;1953;51.222;6.624;2023-05-17T21:39:51;13.40;1.00
3876;DHT22;1953;51.222;6.624;2023-05-17T21:44:33;13.40;1.00
3876;DHT22;1953;51.222;6.624;2023-05-17T21:49:16;13.40;1.00
3876;DHT22;1953;51.222;6.624;2023-05-17T21:53:58;13.30;1.00
3876;DHT22;1953;51.222;6.624;2023-05-17T21:58:43;13.20;1.00
3876;DHT22;1953;51.222;6.624;2023-05-17T22:03:25;13.20;1.00
3876;DHT22;1953;51.222;6.624;2023-05-17T22:08:08;13.10;1.00
3876;DHT22;1953;51.222;6.624;2023-05-17T22:12:50;13.00;1.00
3876;DHT22;1953;51.222;6.624;2023-05-17T22:17:35;12.90;1.00
3876;DHT22;1953;51.222;6.624;2023-05-17T22:22:18;12.70;1.00
3876;DHT22;1953;51.222;6.624;2023-05-17T22:27:02;12.50;1.00
3876;DHT22;1953;51.222;6.624;2023-05-17T22:31:44;12.50;1.00
3876;DHT22;1953;51.222;6.624;2023-05-17T22:36:28;12.30;1.00
3876;DHT22;1953;51.222;6.624;2023-05-17T22:41:12;12.30;1.00
3876;DHT22;1953;51.222;6.624;2023-05-17T22:45:55;12.30;1.00
3876;DHT22;1953;51.222;6.624;2023-05-17T22:50:40;12.20;1.00
3876;DHT22;1953;51.222;6.624;2023-05-17T22:55:24;12.20;1.00
3876;DHT22;1953;51.222;6.624;2023-05-17T23:00:07;12.20;1.00
3876;DHT22;1953;51.222;6.624;2023-05-17T23:04:51;12.20;1.00
3876;DHT22;1953;51.222;6.624;2023-05-17T23:09:34;11.40;1.00
3876;DHT22;1953;51.222;6.624;2023-05-17T23:14:19;12.20;1.00
3876;DHT22;1953;51.222;6.624;2023-05-17T23:19:02;12.10;1.00
3876;DHT22;1953;51.222;6.624;2023-05-17T23:23:44;11.90;1.00
3876;DHT22;1953;51.222;6.624;2023-05-17T23:28:27;11.70;1.00
3876;DHT22;1953;51.222;6.624;2023-05-17T23:33:11;11.70;1.00
3876;DHT22;1953;51.222;6.624;2023-05-17T23:37:55;11.70;1.00
3876;DHT22;1953;51.222;6.624;2023-05-17T23:42:37;11.60;1.00
3876;DHT22;1953;51.222;6.624;2023-05-17T23:47:21;11.50;1.00
3876;DHT22;1953;51.222;6.624;2023-05-17T23:52:06;11.30;1.00
3876;DHT22;1953;51.222;6.624;2023-05-17T23:56:51;11.20;1.00
